Search for airport 
image banner adimage banner adimage banner ad
image banner ad

PN66 - Dunlea Airpark

Located in New Alexandria, United States

ICAO - PN66, IATA -

Data provided by Airmate  

General information

Coordinates: N40°25'32" W79°21'49"
Elevation is 1220 feet MSL.
Magnetic variation is -08° East
View others Airports in Pennsylvania

Operational data

Special qualification required
Current time UTC:
Current local time:
Weather at : KLBE - Arnold Palmer Rgnl ( 17 km )
METAR: KLBE 150715Z AUTO 00000KT 1/4SM FG OVC001 14/14 A2990 RMK AO2
TAF: KLBE 150536Z 1506/1606 00000KT 4SM BR SCT002 TEMPO 1509/1512 1/2SM FG BKN001 FM151300 30006KT P6SM SCT040 FM151600 30009G17KT P6SM SCT050 FM160000 31007KT P6SM SCT150
View NOTAMs / SUP AIP / TFR affecting this airport [VIEW]
Communications frequencies: [VIEW]

Runways:

RWY identifierQFULength (ft)Width (ft)SurfaceLDA (ft)
052000100GRASS
232000100GRASS

Airport contact information

Address: New Alexandria United States

Satellite view of PN66